createdAt,value
2019-01-28T00:02:42.379Z,10.57
2019-01-28T00:05:22.214Z,10.30
2019-01-28T00:08:08.473Z,10.67
2019-01-28T00:10:48.457Z,10.90
2019-01-28T00:13:14.939Z,10.03
2019-01-28T00:16:03.639Z,9.27
2019-01-28T00:18:30.161Z,9.57
2019-01-28T00:20:56.743Z,9.03
2019-01-28T00:23:42.994Z,9.17
2019-01-28T00:26:09.513Z,9.57
2019-01-28T00:28:36.527Z,8.70
2019-01-28T00:31:03.458Z,9.37
2019-01-28T00:33:49.774Z,8.63
2019-01-28T00:36:35.965Z,7.93
2019-01-28T00:39:15.983Z,7.50
2019-01-28T00:42:02.388Z,7.97
2019-01-28T00:44:43.211Z,7.03
2019-01-28T00:47:49.315Z,6.57
2019-01-28T00:50:29.217Z,8.10
2019-01-28T00:53:15.463Z,8.00
2019-01-28T00:56:01.917Z,7.83
2019-01-28T00:58:48.095Z,7.07
2019-01-28T01:01:27.635Z,7.60
2019-01-28T01:04:13.982Z,6.70
2019-01-28T01:06:40.479Z,6.67
2019-01-28T01:09:26.716Z,6.80
2019-01-28T01:12:06.287Z,8.33
2019-01-28T01:14:52.512Z,7.83
2019-01-28T01:17:32.642Z,7.37
2019-01-28T01:20:18.899Z,7.10
2019-01-28T01:22:59.137Z,9.00
2019-01-28T01:25:46.754Z,6.67
2019-01-28T01:28:13.290Z,7.63
2019-01-28T01:30:59.561Z,7.53
2019-01-28T01:33:45.899Z,6.57
2019-01-28T01:36:26.280Z,7.07
2019-01-28T01:38:52.664Z,6.00
2019-01-28T01:41:38.976Z,8.10
2019-01-28T01:44:25.282Z,5.77
2019-01-28T01:47:05.160Z,5.90
2019-01-28T01:49:51.414Z,6.07
2019-01-28T01:52:31.373Z,6.07
2019-01-28T01:55:17.618Z,7.07
2019-01-28T01:57:57.654Z,5.73
2019-01-28T02:00:24.374Z,5.40
2019-01-28T02:02:50.955Z,6.10
2019-01-28T02:05:37.241Z,5.60
2019-01-28T02:08:03.740Z,5.70
2019-01-28T02:10:50.118Z,5.07
2019-01-28T02:13:29.895Z,5.97
2019-01-28T02:16:16.157Z,5.63
2019-01-28T02:19:02.609Z,5.33
2019-01-28T02:21:48.985Z,4.80
2019-01-28T02:24:15.477Z,4.63
2019-01-28T02:26:41.981Z,6.33
2019-01-28T02:29:08.587Z,5.70
2019-01-28T02:31:35.308Z,5.77
2019-01-28T02:34:01.873Z,5.20
2019-01-28T02:36:48.317Z,5.70
2019-01-28T02:39:14.739Z,5.80
2019-01-28T02:41:41.248Z,5.17
2019-01-28T02:44:27.663Z,5.03
2019-01-28T02:47:13.893Z,5.47
2019-01-28T02:49:40.507Z,4.40
2019-01-28T02:52:26.732Z,4.83
2019-01-28T02:55:07.154Z,4.77
2019-01-28T02:57:53.395Z,5.03
2019-01-28T03:00:33.349Z,4.60
2019-01-28T03:03:19.741Z,4.63
2019-01-28T03:06:00.119Z,3.93
2019-01-28T03:08:26.759Z,4.17
2019-01-28T03:11:08.083Z,3.10
2019-01-28T03:13:54.446Z,3.50
2019-01-28T03:16:42.627Z,3.93
2019-01-28T03:19:22.979Z,4.00
2019-01-28T03:22:09.335Z,3.37
2019-01-28T03:24:35.819Z,3.97
2019-01-28T03:27:22.148Z,3.83
2019-01-28T03:30:23.839Z,2.87
2019-01-28T03:32:50.427Z,3.40
2019-01-28T03:35:36.792Z,2.87
2019-01-28T03:38:23.045Z,3.60
2019-01-28T03:41:03.509Z,3.67
2019-01-28T03:43:49.916Z,3.33
2019-01-28T03:46:29.316Z,3.83
2019-01-28T03:48:55.810Z,3.40
2019-01-28T03:51:22.295Z,2.40
2019-01-28T03:54:08.565Z,2.03
2019-01-28T03:56:54.895Z,3.00
2019-01-28T03:59:21.373Z,4.37
2019-01-28T04:02:01.388Z,2.70
2019-01-28T04:04:47.637Z,3.47
2019-01-28T04:07:27.179Z,3.20
2019-01-28T04:09:53.687Z,2.87
2019-01-28T04:12:39.945Z,2.93
2019-01-28T04:15:20.550Z,2.97
2019-01-28T04:18:06.816Z,2.60
2019-01-28T04:20:46.551Z,3.80
2019-01-28T04:23:32.812Z,3.30
2019-01-28T04:26:12.919Z,2.77
2019-01-28T04:28:59.441Z,3.40
2019-01-28T04:31:39.064Z,2.90
2019-01-28T04:34:05.539Z,3.30
2019-01-28T04:36:51.811Z,2.87
2019-01-28T04:39:18.298Z,2.90
2019-01-28T04:42:04.709Z,3.10
2019-01-28T04:44:51.005Z,3.83
2019-01-28T04:47:32.733Z,3.30
2019-01-28T04:50:19.679Z,2.40
2019-01-28T04:52:46.317Z,3.17
2019-01-28T04:55:34.504Z,2.73
2019-01-28T04:58:01.010Z,2.67
2019-01-28T05:00:27.500Z,2.80
2019-01-28T05:02:54.096Z,3.23
2019-01-28T05:05:40.478Z,2.60
2019-01-28T05:08:20.683Z,2.97
2019-01-28T05:11:06.971Z,2.90
2019-01-28T05:13:47.211Z,2.57
2019-01-28T05:16:33.552Z,3.00
2019-01-28T05:18:59.966Z,2.80
2019-01-28T05:21:46.215Z,3.00
2019-01-28T05:24:25.666Z,2.60
2019-01-28T05:27:12.058Z,3.73
2019-01-28T05:29:38.549Z,3.50
2019-01-28T05:32:05.169Z,3.57
2019-01-28T05:34:51.423Z,3.73
2019-01-28T05:37:37.682Z,4.03
2019-01-28T05:40:21.576Z,3.77
2019-01-28T05:43:07.795Z,5.17
2019-01-28T05:45:45.579Z,5.00
2019-01-28T05:48:31.974Z,3.67
2019-01-28T05:51:11.695Z,3.83
2019-01-28T05:53:57.926Z,3.50
2019-01-28T05:56:35.741Z,3.43
2019-01-28T05:59:15.929Z,3.93
2019-01-28T06:01:55.947Z,4.87
2019-01-28T06:04:42.203Z,4.67
2019-01-28T06:07:23.332Z,4.77
2019-01-28T06:10:04.779Z,4.57
2019-01-28T06:12:50.997Z,4.93
2019-01-28T06:15:37.256Z,5.17
2019-01-28T06:18:16.784Z,5.53
2019-01-28T06:20:43.326Z,5.47
2019-01-28T06:23:29.706Z,4.90
2019-01-28T06:26:16.067Z,4.53
2019-01-28T06:28:55.947Z,4.80
2019-01-28T06:31:22.460Z,5.47
2019-01-28T06:34:08.979Z,8.13
2019-01-28T06:36:48.596Z,4.80
2019-01-28T06:39:34.915Z,4.33
2019-01-28T06:42:15.108Z,5.47
2019-01-28T06:45:02.233Z,5.33
2019-01-28T06:47:46.862Z,5.97
2019-01-28T06:50:31.270Z,5.97
2019-01-28T06:52:57.835Z,5.30
2019-01-28T06:55:44.131Z,5.93
2019-01-28T06:58:24.014Z,5.73
2019-01-28T07:00:50.711Z,6.20
2019-01-28T07:03:31.284Z,5.80
2019-01-28T07:06:17.530Z,6.33
2019-01-28T07:08:57.611Z,6.80
2019-01-28T07:11:43.981Z,6.50
2019-01-28T07:14:10.385Z,7.20
2019-01-28T07:16:56.657Z,6.37
2019-01-28T07:19:43.008Z,6.17
2019-01-28T07:22:23.436Z,6.87
2019-01-28T07:28:11.855Z,5.80
2019-01-28T07:30:58.928Z,7.43
2019-01-28T07:33:39.163Z,6.87
2019-01-28T07:36:05.734Z,7.17
2019-01-28T07:38:52.047Z,7.00
2019-01-28T07:41:38.283Z,7.70
2019-01-28T07:44:17.987Z,7.30
2019-01-28T07:47:04.389Z,7.50
2019-01-28T07:49:44.095Z,7.43
2019-01-28T07:52:30.506Z,7.67
2019-01-28T07:55:09.999Z,9.17
2019-01-28T07:57:56.393Z,9.13
2019-01-28T08:00:42.714Z,9.33
2019-01-28T08:03:09.438Z,8.87
2019-01-28T08:05:55.716Z,8.80
2019-01-28T08:08:42.036Z,9.43
2019-01-28T08:11:28.283Z,9.57
2019-01-28T08:13:54.831Z,9.20
2019-01-28T08:16:21.338Z,9.17
2019-01-28T08:19:07.593Z,10.80
2019-01-28T08:21:34.070Z,9.67
2019-01-28T08:27:13.248Z,11.83
2019-01-28T08:29:59.451Z,11.50
2019-01-28T08:32:39.428Z,10.90
2019-01-28T08:35:26.478Z,10.20
2019-01-28T08:38:12.863Z,10.00
2019-01-28T08:40:53.154Z,11.43
2019-01-28T08:43:19.643Z,9.30
2019-01-28T08:46:06.201Z,10.40
2019-01-28T08:48:52.596Z,10.83
2019-01-28T08:51:32.587Z,12.13
2019-01-28T08:54:18.858Z,11.00
2019-01-28T08:56:45.449Z,9.97
2019-01-28T08:59:29.014Z,9.93
2019-01-28T09:01:55.627Z,9.03
2019-01-28T09:04:42.024Z,9.40
2019-01-28T09:07:22.468Z,11.90
2019-01-28T09:10:08.958Z,9.60
2019-01-28T09:12:49.188Z,10.37
2019-01-28T09:18:35.967Z,8.80
2019-01-28T09:21:15.900Z,8.80
2019-01-28T09:24:02.380Z,9.00
2019-01-28T09:26:40.358Z,9.77
2019-01-28T09:29:42.061Z,10.00
2019-01-28T09:32:28.278Z,9.80
2019-01-28T09:35:09.312Z,9.10
2019-01-28T09:37:35.891Z,11.20
2019-01-28T09:40:23.276Z,9.67
2019-01-28T09:43:03.876Z,9.23
2019-01-28T09:45:50.180Z,10.20
2019-01-28T09:48:34.399Z,8.20
2019-01-28T09:51:19.506Z,9.80
2019-01-28T09:53:46.057Z,8.90
2019-01-28T09:56:32.322Z,9.33
2019-01-28T09:58:58.956Z,10.10
2019-01-28T10:01:45.230Z,9.67
2019-01-28T10:04:11.858Z,8.30
2019-01-28T10:06:58.355Z,9.60
2019-01-28T10:09:44.831Z,9.10
2019-01-28T10:12:25.147Z,9.40
2019-01-28T10:15:28.677Z,11.33
2019-01-28T10:18:05.721Z,10.87
2019-01-28T10:20:52.311Z,11.20
2019-01-28T10:23:30.101Z,9.30
2019-01-28T10:26:09.742Z,10.70
2019-01-28T10:28:56.019Z,12.27
2019-01-28T10:31:36.122Z,10.53
2019-01-28T10:34:22.532Z,11.37
2019-01-28T10:37:11.990Z,10.67
2019-01-28T10:39:38.480Z,15.53
2019-01-28T10:42:09.692Z,10.07
2019-01-28T10:44:47.345Z,10.13
2019-01-28T10:47:13.870Z,11.73
2019-01-28T10:50:00.290Z,10.20
2019-01-28T10:52:39.870Z,11.40
2019-01-28T10:55:27.907Z,10.17
2019-01-28T10:58:08.351Z,9.13
2019-01-28T11:00:48.550Z,9.03
2019-01-28T11:03:35.068Z,9.17
2019-01-28T11:06:14.898Z,11.27
2019-01-28T11:09:01.279Z,10.50
2019-01-28T11:11:47.943Z,9.77
2019-01-28T11:14:28.137Z,10.67
2019-01-28T11:17:14.572Z,10.13
2019-01-28T11:19:41.162Z,11.50
2019-01-28T11:22:07.789Z,11.60
2019-01-28T11:24:54.197Z,11.63
2019-01-28T11:27:40.466Z,10.67
2019-01-28T11:30:42.089Z,11.40
2019-01-28T11:33:28.363Z,9.43
2019-01-28T11:36:08.534Z,9.37
2019-01-28T11:38:54.966Z,9.37
2019-01-28T11:41:34.650Z,10.13
2019-01-28T11:44:21.117Z,10.87
2019-01-28T11:47:07.312Z,9.40
2019-01-28T11:49:47.115Z,10.80
2019-01-28T11:52:13.617Z,9.50
2019-01-28T11:55:00.010Z,11.43
2019-01-28T11:57:26.677Z,11.53
2019-01-28T12:00:11.733Z,9.97
2019-01-28T12:02:58.003Z,11.43
2019-01-28T12:08:44.745Z,10.27
2019-01-28T12:11:26.003Z,9.57
2019-01-28T12:13:52.511Z,9.17
2019-01-28T12:16:38.784Z,9.70
2019-01-28T12:19:25.051Z,8.77
2019-01-28T12:21:51.553Z,9.83
2019-01-28T12:24:37.807Z,8.40
2019-01-28T12:27:18.141Z,9.30
2019-01-28T12:30:27.998Z,10.07
2019-01-28T12:33:07.583Z,10.20
2019-01-28T12:35:54.113Z,10.77
2019-01-28T12:38:34.378Z,10.47
2019-01-28T12:41:21.192Z,10.40
2019-01-28T12:43:47.694Z,9.60
2019-01-28T12:46:14.493Z,11.53
2019-01-28T12:49:00.943Z,11.27
2019-01-28T12:51:41.352Z,9.80
2019-01-28T12:54:27.654Z,10.33
2019-01-28T12:57:07.488Z,9.37
2019-01-28T12:59:34.042Z,9.63
2019-01-28T13:02:32.887Z,9.57
2019-01-28T13:05:01.916Z,10.90
2019-01-28T13:07:48.191Z,11.03
2019-01-28T13:10:27.792Z,10.50
2019-01-28T13:13:14.064Z,9.10
2019-01-28T13:15:54.417Z,9.80
2019-01-28T13:18:40.630Z,10.13
2019-01-28T13:21:07.178Z,9.50
2019-01-28T13:23:53.490Z,10.23
2019-01-28T13:26:20.018Z,9.10
2019-01-28T13:29:06.559Z,8.60
2019-01-28T13:31:46.785Z,10.87
2019-01-28T13:34:33.037Z,9.33
2019-01-28T13:37:12.937Z,10.03
2019-01-28T13:39:59.206Z,10.07
2019-01-28T13:42:45.446Z,10.40
2019-01-28T13:45:25.029Z,9.73
2019-01-28T13:48:11.384Z,9.23
2019-01-28T13:50:37.879Z,8.87
2019-01-28T13:53:24.134Z,9.43
2019-01-28T13:55:50.700Z,9.53
2019-01-28T13:58:36.984Z,10.03
2019-01-28T14:01:17.381Z,10.40
2019-01-28T14:03:43.872Z,9.43
2019-01-28T14:06:30.117Z,9.97
2019-01-28T14:09:09.810Z,11.47
2019-01-28T14:11:36.411Z,9.03
2019-01-28T14:14:22.937Z,9.97
2019-01-28T14:17:09.165Z,10.17
2019-01-28T14:19:48.821Z,7.90
2019-01-28T14:22:35.189Z,10.63
2019-01-28T14:25:15.080Z,10.03
2019-01-28T14:28:01.425Z,10.10
2019-01-28T14:30:42.306Z,9.93
2019-01-28T14:33:28.686Z,9.53
2019-01-28T14:36:15.020Z,10.77
2019-01-28T14:39:01.381Z,10.40
2019-01-28T14:41:27.927Z,11.13
2019-01-28T14:44:14.216Z,10.50
2019-01-28T14:47:00.500Z,10.33
2019-01-28T14:49:40.554Z,10.97
2019-01-28T14:52:27.053Z,10.53
2019-01-28T14:55:13.243Z,9.67
2019-01-28T14:57:40.010Z,9.80
2019-01-28T15:00:27.588Z,9.70
2019-01-28T15:03:13.970Z,9.80
2019-01-28T15:05:53.973Z,10.00
2019-01-28T15:08:42.926Z,10.80
2019-01-28T15:11:09.546Z,10.10
2019-01-28T15:16:36.399Z,10.60
2019-01-28T15:19:22.644Z,10.60
2019-01-28T15:22:02.838Z,9.63
2019-01-28T15:24:49.067Z,11.30
2019-01-28T15:27:29.152Z,10.80
2019-01-28T15:29:55.759Z,10.30
2019-01-28T15:32:42.340Z,10.63
2019-01-28T15:35:28.629Z,10.57
2019-01-28T15:38:08.211Z,11.77
2019-01-28T15:40:54.564Z,10.17
2019-01-28T15:43:40.924Z,10.03
2019-01-28T15:46:49.988Z,10.40
2019-01-28T15:49:16.845Z,13.03
2019-01-28T15:52:03.291Z,11.33
2019-01-28T15:54:29.883Z,12.23
2019-01-28T15:56:56.268Z,11.00
2019-01-28T15:59:42.611Z,10.00
2019-01-28T16:02:09.349Z,10.83
2019-01-28T16:04:35.823Z,11.20
2019-01-28T16:07:22.101Z,11.90
2019-01-28T16:09:48.791Z,10.67
2019-01-28T16:12:35.175Z,10.63
2019-01-28T16:15:41.169Z,10.17
2019-01-28T16:18:09.068Z,10.70
2019-01-28T16:20:55.766Z,10.27
2019-01-28T16:23:35.154Z,10.73
2019-01-28T16:26:21.415Z,11.73
2019-01-28T16:29:01.655Z,11.10
2019-01-28T16:31:28.182Z,11.10
2019-01-28T16:34:14.489Z,11.67
2019-01-28T16:37:00.847Z,10.70
2019-01-28T16:39:41.254Z,10.40
2019-01-28T16:42:07.756Z,12.33
2019-01-28T16:44:54.147Z,12.30
2019-01-28T16:47:40.635Z,11.40
2019-01-28T16:50:26.747Z,11.87
2019-01-28T16:53:10.163Z,10.37
2019-01-28T16:55:49.930Z,11.07
2019-01-28T16:58:36.369Z,11.93
2019-01-28T17:01:16.052Z,11.20
2019-01-28T17:03:56.206Z,11.43
2019-01-28T17:06:42.418Z,11.27
2019-01-28T17:09:09.118Z,12.13
2019-01-28T17:11:35.613Z,12.13
2019-01-28T17:14:21.958Z,11.63
2019-01-28T17:16:48.378Z,11.97
2019-01-28T17:19:34.661Z,11.87
2019-01-28T17:22:14.756Z,12.20
2019-01-28T17:25:01.141Z,13.07
2019-01-28T17:27:27.622Z,12.67
2019-01-28T17:32:57.798Z,11.97
2019-01-28T17:35:24.323Z,13.87
2019-01-28T17:38:10.569Z,12.20
2019-01-28T17:40:50.126Z,13.63
2019-01-28T17:43:16.723Z,12.60
2019-01-28T17:46:02.990Z,15.00
2019-01-28T17:48:49.232Z,13.30
2019-01-28T17:51:15.732Z,13.87
2019-01-28T17:54:01.979Z,13.83
2019-01-28T17:56:28.583Z,14.37
2019-01-28T17:59:14.836Z,14.37
2019-01-28T18:01:54.978Z,13.37
2019-01-28T18:04:41.218Z,14.33
2019-01-28T18:07:21.219Z,14.90
2019-01-28T18:09:47.629Z,14.80
2019-01-28T18:12:33.886Z,13.27
2019-01-28T18:15:21.374Z,12.60
2019-01-28T18:18:27.510Z,14.13
2019-01-28T18:21:07.481Z,14.67
2019-01-28T18:26:28.685Z,14.37
2019-01-28T18:29:14.927Z,15.27
2019-01-28T18:31:55.203Z,14.50
2019-01-28T18:34:41.377Z,14.10
2019-01-28T18:37:21.066Z,12.90
2019-01-28T18:40:27.048Z,14.03
2019-01-28T18:43:06.520Z,13.90
2019-01-28T18:45:33.151Z,14.33
2019-01-28T18:47:59.770Z,14.77
2019-01-28T18:50:46.067Z,15.03
2019-01-28T18:53:12.535Z,15.50
2019-01-28T18:55:58.776Z,14.00
2019-01-28T18:58:45.163Z,13.67
2019-01-28T19:01:26.001Z,15.60
2019-01-28T19:04:06.163Z,13.63
2019-01-28T19:06:52.508Z,14.57
2019-01-28T19:09:32.903Z,13.83
2019-01-28T19:15:22.287Z,15.13
2019-01-28T19:20:58.030Z,14.70
2019-01-28T19:23:44.270Z,16.23
2019-01-28T19:26:24.036Z,25.47
2019-01-28T19:29:10.261Z,17.43
2019-01-28T19:31:50.538Z,15.20
2019-01-28T19:34:36.787Z,15.13
2019-01-28T19:40:23.445Z,19.53
2019-01-28T19:43:03.506Z,14.10
2019-01-28T19:45:49.787Z,17.07
2019-01-28T19:48:30.368Z,15.47
2019-01-28T19:51:16.608Z,13.50
2019-01-28T19:53:56.186Z,14.27
2019-01-28T19:56:45.537Z,13.60
2019-01-28T19:59:12.033Z,14.53
2019-01-28T20:01:58.297Z,14.60
2019-01-28T20:04:38.090Z,12.63
2019-01-28T20:07:24.340Z,12.17
2019-01-28T20:10:05.246Z,13.73
2019-01-28T20:12:31.730Z,15.77
2019-01-28T20:14:58.014Z,13.70
2019-01-28T20:17:44.273Z,14.73
2019-01-28T20:23:02.834Z,14.67
2019-01-28T20:25:49.278Z,12.93
2019-01-28T20:28:35.719Z,15.87
2019-01-28T20:31:16.026Z,16.70
2019-01-28T20:33:42.884Z,14.20
2019-01-28T20:36:09.355Z,13.20
2019-01-28T20:38:55.634Z,13.17
2019-01-28T20:41:22.245Z,12.37
2019-01-28T20:44:08.623Z,15.43
2019-01-28T20:46:35.281Z,24.00
2019-01-28T20:49:01.750Z,15.97
2019-01-28T20:51:48.030Z,13.23
2019-01-28T20:54:34.393Z,14.07
2019-01-28T20:57:14.307Z,13.83
2019-01-28T21:00:00.681Z,15.60
2019-01-28T21:02:40.425Z,14.50
2019-01-28T21:05:28.504Z,18.33
2019-01-28T21:08:08.813Z,14.73
2019-01-28T21:10:55.043Z,13.17
2019-01-28T21:13:21.712Z,15.23
2019-01-28T21:15:48.201Z,15.13
2019-01-28T21:18:34.819Z,14.90
2019-01-28T21:21:01.296Z,17.27
2019-01-28T21:23:27.839Z,17.00
2019-01-28T21:26:14.044Z,14.57
2019-01-28T21:29:00.380Z,13.43
2019-01-28T21:31:40.563Z,13.37
2019-01-28T21:34:26.709Z,13.57
2019-01-28T21:40:08.828Z,13.83
2019-01-28T21:42:35.306Z,14.93
2019-01-28T21:45:21.925Z,14.30
2019-01-28T21:48:08.339Z,12.67
2019-01-28T21:50:54.590Z,13.40
2019-01-28T21:53:34.163Z,14.40
2019-01-28T21:56:20.627Z,15.20
2019-01-28T21:59:06.936Z,13.97
2019-01-28T22:01:33.612Z,13.30
2019-01-28T22:04:14.130Z,15.23
2019-01-28T22:07:00.791Z,13.40
2019-01-28T22:09:27.866Z,14.10
2019-01-28T22:12:14.173Z,13.07
2019-01-28T22:15:00.398Z,12.73
2019-01-28T22:17:40.423Z,13.70
2019-01-28T22:23:28.130Z,14.53
2019-01-28T22:26:07.957Z,13.83
2019-01-28T22:28:54.345Z,14.10
2019-01-28T22:31:34.242Z,14.47
2019-01-28T22:34:21.728Z,14.07
2019-01-28T22:37:01.463Z,14.47
2019-01-28T22:39:47.846Z,14.27
2019-01-28T22:42:27.713Z,13.07
2019-01-28T22:45:15.052Z,13.47
2019-01-28T22:47:55.591Z,14.50
2019-01-28T22:50:42.006Z,13.33
2019-01-28T22:53:21.881Z,14.60
2019-01-28T22:56:08.398Z,13.07
2019-01-28T22:58:48.191Z,12.30
2019-01-28T23:01:35.185Z,13.43
2019-01-28T23:04:01.731Z,12.67
2019-01-28T23:06:48.027Z,13.17
2019-01-28T23:09:14.526Z,13.50
2019-01-28T23:12:00.763Z,12.13
2019-01-28T23:14:27.315Z,14.10
2019-01-28T23:16:53.896Z,11.60
2019-01-28T23:19:40.215Z,11.03
2019-01-28T23:22:20.542Z,11.60
2019-01-28T23:25:06.962Z,10.63
2019-01-28T23:27:46.838Z,9.83
2019-01-28T23:30:33.079Z,10.87
2019-01-28T23:33:19.320Z,11.70
2019-01-28T23:35:45.830Z,11.67
2019-01-28T23:38:12.448Z,10.63
2019-01-28T23:40:58.658Z,11.33
2019-01-28T23:43:38.963Z,10.00
2019-01-28T23:46:25.297Z,9.70
2019-01-28T23:49:04.868Z,11.87
2019-01-28T23:51:31.340Z,11.43
2019-01-28T23:53:57.738Z,10.40
2019-01-28T23:56:44.115Z,10.87
2019-01-28T23:59:30.353Z,10.07
